createdAt,value
2023-03-06T00:00:48.876Z,8.70
2023-03-06T00:01:48.918Z,11.00
2023-03-06T00:02:48.818Z,11.40
2023-03-06T00:03:48.860Z,9.00
2023-03-06T00:04:48.770Z,10.80
2023-03-06T00:05:48.864Z,13.10
2023-03-06T00:06:48.704Z,11.30
2023-03-06T00:07:48.673Z,9.80
2023-03-06T00:08:48.645Z,11.60
2023-03-06T00:09:48.613Z,10.10
2023-03-06T00:10:48.591Z,12.40
2023-03-06T00:11:48.554Z,11.40
2023-03-06T00:12:48.546Z,11.40
2023-03-06T00:13:48.501Z,12.10
2023-03-06T00:14:48.471Z,10.40
2023-03-06T00:15:48.601Z,8.80
2023-03-06T00:16:48.418Z,9.70
2023-03-06T00:17:48.396Z,9.90
2023-03-06T00:18:48.358Z,15.30
2023-03-06T00:19:48.323Z,9.10
2023-03-06T00:20:48.297Z,11.30
2023-03-06T00:21:48.266Z,13.20
2023-03-06T00:22:48.241Z,11.60
2023-03-06T00:23:48.208Z,13.80
2023-03-06T00:24:48.182Z,14.10
2023-03-06T00:25:48.150Z,12.70
2023-03-06T00:26:48.124Z,12.90
2023-03-06T00:27:48.092Z,13.90
2023-03-06T00:28:48.081Z,13.00
2023-03-06T00:29:48.031Z,12.60
2023-03-06T00:30:48.007Z,11.70
2023-03-06T00:31:48.070Z,13.70
2023-03-06T00:32:47.970Z,11.60
2023-03-06T00:33:47.914Z,13.10
2023-03-06T00:34:47.886Z,12.70
2023-03-06T00:35:47.931Z,12.50
2023-03-06T00:36:47.826Z,10.80
2023-03-06T00:37:47.803Z,12.30
2023-03-06T00:38:47.776Z,12.40
2023-03-06T00:39:47.743Z,13.20
2023-03-06T00:40:47.710Z,12.70
2023-03-06T00:41:47.686Z,13.50
2023-03-06T00:42:47.657Z,15.10
2023-03-06T00:43:47.626Z,16.40
2023-03-06T00:44:47.612Z,12.30
2023-03-06T00:45:47.609Z,13.20
2023-03-06T00:46:47.534Z,13.40
2023-03-06T00:47:47.513Z,12.00
2023-03-06T00:48:47.474Z,12.80
2023-03-06T00:49:47.453Z,14.60
2023-03-06T00:50:47.415Z,13.70
2023-03-06T00:51:47.384Z,12.20
2023-03-06T00:52:47.374Z,15.20
2023-03-06T00:53:47.329Z,16.00
2023-03-06T00:54:47.303Z,17.70
2023-03-06T00:55:47.270Z,13.60
2023-03-06T00:56:47.242Z,25.40
2023-03-06T00:57:47.212Z,21.00
2023-03-06T00:58:47.182Z,16.10
2023-03-06T00:59:47.153Z,14.30
2023-03-06T01:00:47.171Z,14.60
2023-03-06T01:01:47.108Z,14.10
2023-03-06T01:02:47.070Z,32.40
2023-03-06T01:03:47.038Z,23.90
2023-03-06T01:04:47.007Z,22.30
2023-03-06T01:05:46.971Z,24.30
2023-03-06T01:06:46.944Z,17.60
2023-03-06T01:07:46.911Z,20.90
2023-03-06T01:08:46.893Z,18.70
2023-03-06T01:09:46.854Z,16.40
2023-03-06T01:10:46.825Z,18.00
2023-03-06T01:11:46.795Z,19.10
2023-03-06T01:12:46.770Z,16.70
2023-03-06T01:13:46.735Z,17.40
2023-03-06T01:14:46.707Z,14.30
2023-03-06T01:15:46.674Z,16.40
2023-03-06T01:16:46.777Z,19.40
2023-03-06T01:17:46.617Z,14.40
2023-03-06T01:18:46.597Z,15.70
2023-03-06T01:19:46.572Z,13.60
2023-03-06T01:20:46.530Z,16.40
2023-03-06T01:21:46.499Z,13.80
2023-03-06T01:22:46.474Z,13.60
2023-03-06T01:23:46.441Z,13.40
2023-03-06T01:24:46.413Z,19.80
2023-03-06T01:25:46.382Z,15.40
2023-03-06T01:26:46.354Z,15.10
2023-03-06T01:27:46.328Z,12.90
2023-03-06T01:28:46.295Z,12.30
2023-03-06T01:29:46.263Z,12.00
2023-03-06T01:30:46.238Z,11.30
2023-03-06T01:31:46.249Z,11.50
2023-03-06T01:32:46.201Z,11.50
2023-03-06T01:33:46.151Z,17.50
2023-03-06T01:34:46.120Z,13.80
2023-03-06T01:35:46.113Z,11.70
2023-03-06T01:36:46.062Z,11.20
2023-03-06T01:37:46.032Z,14.00
2023-03-06T01:38:46.005Z,14.20
2023-03-06T01:39:45.974Z,13.90
2023-03-06T01:40:45.947Z,15.60
2023-03-06T01:41:45.918Z,11.20
2023-03-06T01:42:46.886Z,11.90
2023-03-06T01:43:45.867Z,13.10
2023-03-06T01:44:45.839Z,11.10
2023-03-06T01:45:45.844Z,13.40
2023-03-06T01:46:45.773Z,12.30
2023-03-06T01:47:45.747Z,14.20
2023-03-06T01:48:45.744Z,15.10
2023-03-06T01:49:45.691Z,10.70
2023-03-06T01:50:45.658Z,13.60
2023-03-06T01:51:45.624Z,13.70
2023-03-06T01:52:45.599Z,17.20
2023-03-06T01:53:45.564Z,16.00
2023-03-06T01:54:45.547Z,13.40
2023-03-06T01:55:45.506Z,16.00
2023-03-06T01:56:45.487Z,13.60
2023-03-06T01:57:45.454Z,13.40
2023-03-06T01:58:45.428Z,10.60
2023-03-06T01:59:45.387Z,11.50
2023-03-06T02:00:45.399Z,12.20
2023-03-06T02:01:45.335Z,14.90
2023-03-06T02:02:45.305Z,10.60
2023-03-06T02:03:45.271Z,11.60
2023-03-06T02:04:45.265Z,12.70
2023-03-06T02:05:45.211Z,11.10
2023-03-06T02:06:45.182Z,13.40
2023-03-06T02:07:45.155Z,12.90
2023-03-06T02:08:45.128Z,13.00
2023-03-06T02:09:45.097Z,10.90
2023-03-06T02:10:45.076Z,12.10
2023-03-06T02:11:45.143Z,12.00
2023-03-06T02:12:45.009Z,14.10
2023-03-06T02:13:44.979Z,11.60
2023-03-06T02:14:44.951Z,9.60
2023-03-06T02:15:44.923Z,11.40
2023-03-06T02:16:44.975Z,11.60
2023-03-06T02:17:44.861Z,14.30
2023-03-06T02:18:44.833Z,12.20
2023-03-06T02:19:44.815Z,11.20
2023-03-06T02:20:44.799Z,11.50
2023-03-06T02:21:44.758Z,14.90
2023-03-06T02:22:44.717Z,14.00
2023-03-06T02:23:44.688Z,10.60
2023-03-06T02:24:44.656Z,11.20
2023-03-06T02:25:44.630Z,10.00
2023-03-06T02:26:44.606Z,9.90
2023-03-06T02:27:44.571Z,11.80
2023-03-06T02:28:44.555Z,9.60
2023-03-06T02:29:44.513Z,12.40
2023-03-06T02:30:44.546Z,10.30
2023-03-06T02:31:44.458Z,9.30
2023-03-06T02:32:44.424Z,11.20
2023-03-06T02:33:44.396Z,9.80
2023-03-06T02:34:44.365Z,10.30
2023-03-06T02:35:44.417Z,10.00
2023-03-06T02:36:44.326Z,12.70
2023-03-06T02:37:44.280Z,9.70
2023-03-06T02:38:44.246Z,9.70
2023-03-06T02:39:44.228Z,8.90
2023-03-06T02:40:44.188Z,9.80
2023-03-06T02:41:44.163Z,9.60
2023-03-06T02:42:44.131Z,9.80
2023-03-06T02:43:44.106Z,11.20
2023-03-06T02:44:44.071Z,9.30
2023-03-06T02:45:44.044Z,11.50
2023-03-06T02:46:44.009Z,11.10
2023-03-06T02:47:43.981Z,13.80
2023-03-06T02:48:43.953Z,11.60
2023-03-06T02:49:43.923Z,12.70
2023-03-06T02:50:43.903Z,10.90
2023-03-06T02:51:43.862Z,9.70
2023-03-06T02:52:43.857Z,10.00
2023-03-06T02:53:43.805Z,9.70
2023-03-06T02:54:43.774Z,9.90
2023-03-06T02:55:43.747Z,9.40
2023-03-06T02:56:43.713Z,11.10
2023-03-06T02:57:43.684Z,9.70
2023-03-06T02:58:43.664Z,10.90
2023-03-06T02:59:43.623Z,10.50
2023-03-06T03:00:43.626Z,13.40
2023-03-06T03:01:43.643Z,12.00
2023-03-06T03:02:43.546Z,9.30
2023-03-06T03:03:43.508Z,13.00
2023-03-06T03:04:43.530Z,12.70
2023-03-06T03:05:43.464Z,12.20
2023-03-06T03:06:43.419Z,11.20
2023-03-06T03:07:43.387Z,11.00
2023-03-06T03:08:43.379Z,12.20
2023-03-06T03:09:43.341Z,13.20
2023-03-06T03:10:43.300Z,12.80
2023-03-06T03:11:43.268Z,13.70
2023-03-06T03:12:43.238Z,16.10
2023-03-06T03:13:43.209Z,14.90
2023-03-06T03:14:43.185Z,12.60
2023-03-06T03:15:43.194Z,11.80
2023-03-06T03:16:43.117Z,11.60
2023-03-06T03:17:43.091Z,10.10
2023-03-06T03:18:43.060Z,12.40
2023-03-06T03:19:43.034Z,11.30
2023-03-06T03:20:43.010Z,10.70
2023-03-06T03:21:42.974Z,11.90
2023-03-06T03:22:42.946Z,11.10
2023-03-06T03:23:42.919Z,10.30
2023-03-06T03:24:42.936Z,11.00
2023-03-06T03:25:42.854Z,10.40
2023-03-06T03:26:42.828Z,10.20
2023-03-06T03:27:42.811Z,11.20
2023-03-06T03:28:42.777Z,9.40
2023-03-06T03:29:42.748Z,13.30
2023-03-06T03:30:42.707Z,10.20
2023-03-06T03:31:42.676Z,11.80
2023-03-06T03:32:42.646Z,10.30
2023-03-06T03:33:42.628Z,8.60
2023-03-06T03:34:42.589Z,9.50
2023-03-06T03:35:42.625Z,8.80
2023-03-06T03:36:42.528Z,11.30
2023-03-06T03:37:42.501Z,9.50
2023-03-06T03:38:42.484Z,9.20
2023-03-06T03:39:42.442Z,11.10
2023-03-06T03:40:42.427Z,11.90
2023-03-06T03:41:42.383Z,10.30
2023-03-06T03:42:42.351Z,8.60
2023-03-06T03:43:42.321Z,9.10
2023-03-06T03:44:42.311Z,11.40
2023-03-06T03:45:42.264Z,11.20
2023-03-06T03:46:42.246Z,9.70
2023-03-06T03:47:42.203Z,9.50
2023-03-06T03:48:42.184Z,8.40
2023-03-06T03:49:42.143Z,9.00
2023-03-06T03:50:42.114Z,7.80
2023-03-06T03:51:42.085Z,10.00
2023-03-06T03:52:42.053Z,11.70
2023-03-06T03:53:42.033Z,8.20
2023-03-06T03:54:41.993Z,9.30
2023-03-06T03:55:41.969Z,8.60
2023-03-06T03:56:41.951Z,9.40
2023-03-06T03:57:41.901Z,7.70
2023-03-06T03:58:41.873Z,14.70
2023-03-06T03:59:41.840Z,8.50
2023-03-06T04:00:41.816Z,11.90
2023-03-06T04:01:41.818Z,12.00
2023-03-06T04:02:41.751Z,10.10
2023-03-06T04:03:41.723Z,9.00
2023-03-06T04:04:41.725Z,9.40
2023-03-06T04:05:41.665Z,8.50
2023-03-06T04:06:41.633Z,9.60
2023-03-06T04:07:41.605Z,9.00
2023-03-06T04:08:41.571Z,11.70
2023-03-06T04:09:41.546Z,11.00
2023-03-06T04:10:41.519Z,9.70
2023-03-06T04:11:41.486Z,10.10
2023-03-06T04:12:41.476Z,11.00
2023-03-06T04:13:41.424Z,9.20
2023-03-06T04:14:41.401Z,9.50
2023-03-06T04:15:41.362Z,13.40
2023-03-06T04:16:41.330Z,8.80
2023-03-06T04:17:41.302Z,9.90
2023-03-06T04:18:41.275Z,9.10
2023-03-06T04:19:41.245Z,8.10
2023-03-06T04:20:41.215Z,8.00
2023-03-06T04:21:41.187Z,9.60
2023-03-06T04:22:41.152Z,8.90
2023-03-06T04:23:41.126Z,10.80
2023-03-06T04:24:41.096Z,11.30
2023-03-06T04:25:41.062Z,11.80
2023-03-06T04:26:41.034Z,9.40
2023-03-06T04:27:41.003Z,9.40
2023-03-06T04:28:40.990Z,10.00
2023-03-06T04:29:40.950Z,7.80
2023-03-06T04:30:40.924Z,11.60
2023-03-06T04:31:40.936Z,9.50
2023-03-06T04:32:40.929Z,10.80
2023-03-06T04:33:40.826Z,10.00
2023-03-06T04:34:40.796Z,9.70
2023-03-06T04:35:40.817Z,10.40
2023-03-06T04:36:40.737Z,13.20
2023-03-06T04:37:40.707Z,9.10
2023-03-06T04:38:40.689Z,10.00
2023-03-06T04:39:40.646Z,11.60
2023-03-06T04:40:40.624Z,10.30
2023-03-06T04:41:40.605Z,11.00
2023-03-06T04:42:40.561Z,11.20
2023-03-06T04:43:40.530Z,10.30
2023-03-06T04:44:40.513Z,12.20
2023-03-06T04:45:40.493Z,11.30
2023-03-06T04:46:40.439Z,11.60
2023-03-06T04:47:40.408Z,10.40
2023-03-06T04:48:40.399Z,11.40
2023-03-06T04:49:40.351Z,10.60
2023-03-06T04:50:40.315Z,15.10
2023-03-06T04:51:40.297Z,15.10
2023-03-06T04:52:40.259Z,11.30
2023-03-06T04:53:40.233Z,11.80
2023-03-06T04:54:40.212Z,15.20
2023-03-06T04:55:40.170Z,12.80
2023-03-06T04:56:40.138Z,14.10
2023-03-06T04:57:40.112Z,15.80
2023-03-06T04:58:40.078Z,12.60
2023-03-06T04:59:40.077Z,12.40
2023-03-06T05:00:40.115Z,12.20
2023-03-06T05:01:39.992Z,12.80
2023-03-06T05:02:39.954Z,16.20
2023-03-06T05:03:39.934Z,15.80
2023-03-06T05:04:39.907Z,13.20
2023-03-06T05:05:39.875Z,15.90
2023-03-06T05:06:39.840Z,14.60
2023-03-06T05:07:39.805Z,14.20
2023-03-06T05:08:39.775Z,15.80
2023-03-06T05:09:39.746Z,15.60
2023-03-06T05:10:39.714Z,15.40
2023-03-06T05:11:39.686Z,13.60
2023-03-06T05:12:39.663Z,17.40
2023-03-06T05:13:39.626Z,16.30
2023-03-06T05:14:39.592Z,14.10
2023-03-06T05:15:39.564Z,17.50
2023-03-06T05:16:39.626Z,15.20
2023-03-06T05:17:39.507Z,14.60
2023-03-06T05:18:39.482Z,13.30
2023-03-06T05:19:39.443Z,15.60
2023-03-06T05:20:39.412Z,13.50
2023-03-06T05:21:39.385Z,14.40
2023-03-06T05:22:39.353Z,15.20
2023-03-06T05:23:39.322Z,15.20
2023-03-06T05:24:39.295Z,16.60
2023-03-06T05:25:39.267Z,16.10
2023-03-06T05:26:39.234Z,15.40
2023-03-06T05:27:39.206Z,15.90
2023-03-06T05:28:39.173Z,15.20
2023-03-06T05:29:39.144Z,13.50
2023-03-06T05:30:39.116Z,15.60
2023-03-06T05:31:39.138Z,14.30
2023-03-06T05:32:39.147Z,16.70
2023-03-06T05:33:39.024Z,14.80
2023-03-06T05:34:38.991Z,14.90
2023-03-06T05:35:39.016Z,12.70
2023-03-06T05:36:38.933Z,14.30
2023-03-06T05:37:38.907Z,16.00
2023-03-06T05:38:38.880Z,15.90
2023-03-06T05:39:38.850Z,15.10
2023-03-06T05:40:38.817Z,12.80
2023-03-06T05:41:38.788Z,17.60
2023-03-06T05:42:38.756Z,17.60
2023-03-06T05:43:38.728Z,15.90
2023-03-06T05:44:38.704Z,15.40
2023-03-06T05:45:38.745Z,16.40
2023-03-06T05:46:38.657Z,15.90
2023-03-06T05:47:38.618Z,18.40
2023-03-06T05:48:38.602Z,14.50
2023-03-06T05:49:38.550Z,13.60
2023-03-06T05:50:38.521Z,15.40
2023-03-06T05:51:38.494Z,13.90
2023-03-06T05:52:38.458Z,15.50
2023-03-06T05:53:38.431Z,15.70
2023-03-06T05:54:38.400Z,14.80
2023-03-06T05:55:38.371Z,15.80
2023-03-06T05:56:38.342Z,14.30
2023-03-06T05:57:38.307Z,17.00
2023-03-06T05:58:38.282Z,15.40
2023-03-06T05:59:38.250Z,15.60
2023-03-06T06:00:38.217Z,15.40
2023-03-06T06:01:38.191Z,16.80
2023-03-06T06:02:38.346Z,15.60
2023-03-06T06:03:38.280Z,16.70
2023-03-06T06:04:38.113Z,13.70
2023-03-06T06:05:38.067Z,17.70
2023-03-06T06:06:38.041Z,15.20
2023-03-06T06:07:38.010Z,17.10
2023-03-06T06:08:37.984Z,17.30
2023-03-06T06:09:37.951Z,17.70
2023-03-06T06:10:37.922Z,15.70
2023-03-06T06:11:37.888Z,16.20
2023-03-06T06:12:37.860Z,15.50
2023-03-06T06:13:37.831Z,13.40
2023-03-06T06:14:37.797Z,15.60
2023-03-06T06:15:37.900Z,15.70
2023-03-06T06:16:37.734Z,16.10
2023-03-06T06:17:37.709Z,18.30
2023-03-06T06:18:40.590Z,13.20
2023-03-06T06:19:37.649Z,14.70
2023-03-06T06:20:37.658Z,16.20
2023-03-06T06:21:37.588Z,15.90
2023-03-06T06:22:37.558Z,16.80
2023-03-06T06:23:37.525Z,15.40
2023-03-06T06:24:37.508Z,15.70
2023-03-06T06:25:37.475Z,17.40
2023-03-06T06:26:37.436Z,14.60
2023-03-06T06:27:37.417Z,15.00
2023-03-06T06:28:37.379Z,14.50
2023-03-06T06:29:37.345Z,15.30
2023-03-06T06:30:37.319Z,19.50
2023-03-06T06:31:37.292Z,17.90
2023-03-06T06:32:37.299Z,17.00
2023-03-06T06:33:37.226Z,16.40
2023-03-06T06:34:37.200Z,15.20
2023-03-06T06:35:37.362Z,15.00
2023-03-06T06:36:37.153Z,18.80
2023-03-06T06:37:37.106Z,16.60
2023-03-06T06:38:37.080Z,16.10
2023-03-06T06:39:37.049Z,16.50
2023-03-06T06:40:37.036Z,16.50
2023-03-06T06:41:57.018Z,16.80
2023-03-06T06:42:39.861Z,17.00
2023-03-06T06:43:36.928Z,16.50
2023-03-06T06:44:36.899Z,19.60
2023-03-06T06:45:36.870Z,16.60
2023-03-06T06:47:36.852Z,17.20
2023-03-06T06:48:36.776Z,16.40
2023-03-06T06:49:36.754Z,18.00
2023-03-06T06:50:36.719Z,18.10
2023-03-06T06:51:36.688Z,17.30
2023-03-06T06:52:36.675Z,16.40
2023-03-06T06:53:36.697Z,18.80
2023-03-06T06:54:36.604Z,14.40
2023-03-06T06:55:36.574Z,18.70
2023-03-06T06:56:36.543Z,17.80
2023-03-06T06:57:36.516Z,16.60
2023-03-06T06:58:36.477Z,17.10
2023-03-06T06:59:36.458Z,16.60
2023-03-06T07:00:36.421Z,19.50
2023-03-06T07:01:36.468Z,17.70
2023-03-06T07:02:36.362Z,19.60
2023-03-06T07:03:36.343Z,18.40
2023-03-06T07:04:36.297Z,22.10
2023-03-06T07:05:36.265Z,19.20
2023-03-06T07:06:36.239Z,20.40
2023-03-06T07:07:36.203Z,18.10
2023-03-06T07:08:36.196Z,18.30
2023-03-06T07:09:36.142Z,19.40
2023-03-06T07:10:36.116Z,21.50
2023-03-06T07:11:36.083Z,22.60
2023-03-06T07:12:36.058Z,18.50
2023-03-06T07:13:36.023Z,17.50
2023-03-06T07:14:35.995Z,19.30
2023-03-06T07:15:36.080Z,20.70
2023-03-06T07:16:36.013Z,18.60
2023-03-06T07:17:35.901Z,17.30
2023-03-06T07:18:35.874Z,19.20
2023-03-06T07:19:35.878Z,19.50
2023-03-06T07:20:35.816Z,20.40
2023-03-06T07:21:35.786Z,18.20
2023-03-06T07:22:49.970Z,20.60
2023-03-06T07:23:35.721Z,19.00
2023-03-06T07:24:35.719Z,17.70
2023-03-06T07:25:35.660Z,20.30
2023-03-06T07:26:35.632Z,20.50
2023-03-06T07:27:35.645Z,20.20
2023-03-06T07:28:49.792Z,20.40
2023-03-06T07:29:35.541Z,23.50
2023-03-06T07:30:35.510Z,19.50
2023-03-06T07:31:35.501Z,19.50
2023-03-06T07:32:35.490Z,20.00
2023-03-06T07:33:35.420Z,19.00
2023-03-06T07:34:35.401Z,20.10
2023-03-06T07:35:35.394Z,19.10
2023-03-06T07:36:35.328Z,22.10
2023-03-06T07:37:35.303Z,21.30
2023-03-06T07:38:35.273Z,21.00
2023-03-06T07:39:35.240Z,20.50
2023-03-06T07:40:35.236Z,20.30
2023-03-06T07:41:35.206Z,17.60
2023-03-06T07:42:35.156Z,18.20
2023-03-06T07:43:35.120Z,16.80
2023-03-06T07:44:35.090Z,17.70
2023-03-06T07:45:35.060Z,19.10
2023-03-06T07:46:35.194Z,16.70
2023-03-06T07:47:34.999Z,19.60
2023-03-06T07:48:34.969Z,17.80
2023-03-06T07:49:34.946Z,17.00
2023-03-06T07:50:34.911Z,21.30
2023-03-06T07:51:34.881Z,20.20
2023-03-06T07:52:34.849Z,19.40
2023-03-06T07:53:34.818Z,18.80
2023-03-06T07:54:34.799Z,19.30
2023-03-06T07:55:34.756Z,18.40
2023-03-06T07:56:34.747Z,18.80
2023-03-06T07:57:34.696Z,19.70
2023-03-06T07:58:34.669Z,17.90
2023-03-06T07:59:34.640Z,19.30
2023-03-06T08:00:34.610Z,20.10
2023-03-06T08:01:34.576Z,18.70
2023-03-06T08:02:34.597Z,19.90
2023-03-06T08:03:34.552Z,21.50
2023-03-06T08:04:34.484Z,20.30
2023-03-06T08:05:34.454Z,21.90
2023-03-06T08:06:34.434Z,20.90
2023-03-06T08:07:34.392Z,21.00
2023-03-06T08:08:34.373Z,22.20
2023-03-06T08:09:34.335Z,21.50
2023-03-06T08:10:34.317Z,23.40
2023-03-06T08:11:34.282Z,23.80
2023-03-06T08:12:34.255Z,22.40
2023-03-06T08:13:34.206Z,22.00
2023-03-06T08:14:34.181Z,24.30
2023-03-06T08:15:34.159Z,24.20
2023-03-06T08:16:34.201Z,24.60
2023-03-06T08:17:34.089Z,23.50
2023-03-06T08:18:34.090Z,22.60
2023-03-06T08:19:34.022Z,24.30
2023-03-06T08:20:33.999Z,21.80
2023-03-06T08:21:33.960Z,22.80
2023-03-06T08:22:33.934Z,22.70
2023-03-06T08:23:33.908Z,25.00
2023-03-06T08:24:33.873Z,23.90
2023-03-06T08:25:33.840Z,23.30
2023-03-06T08:26:33.810Z,26.40
2023-03-06T08:27:33.782Z,22.50
2023-03-06T08:28:33.770Z,23.70
2023-03-06T08:29:33.731Z,25.70
2023-03-06T08:30:33.688Z,22.90
2023-03-06T08:31:33.665Z,26.50
2023-03-06T08:32:33.685Z,30.40
2023-03-06T08:33:33.607Z,28.10
2023-03-06T08:34:33.580Z,29.50
2023-03-06T08:35:33.553Z,28.90
2023-03-06T08:36:33.505Z,24.90
2023-03-06T08:37:33.534Z,27.40
2023-03-06T08:38:33.444Z,25.60
2023-03-06T08:39:33.412Z,28.10
2023-03-06T08:40:33.383Z,27.50
2023-03-06T08:41:33.360Z,26.10
2023-03-06T08:42:33.332Z,28.70
2023-03-06T08:43:33.316Z,26.30
2023-03-06T08:44:33.347Z,26.90
2023-03-06T08:45:33.267Z,25.20
2023-03-06T08:46:33.207Z,27.70
2023-03-06T08:47:33.171Z,25.60
2023-03-06T08:48:33.138Z,28.60
2023-03-06T08:49:33.111Z,27.30
2023-03-06T08:50:33.078Z,24.50
2023-03-06T08:51:33.045Z,26.90
2023-03-06T08:52:33.022Z,25.80
2023-03-06T08:53:42.622Z,27.00
2023-03-06T08:54:32.959Z,27.50
2023-03-06T08:55:32.925Z,26.50
2023-03-06T08:56:32.902Z,28.10
2023-03-06T08:57:32.864Z,30.60
2023-03-06T08:58:32.847Z,29.40
2023-03-06T08:59:32.829Z,29.10
2023-03-06T09:00:32.847Z,31.60
2023-03-06T09:01:32.831Z,29.60
2023-03-06T09:02:32.749Z,32.50
2023-03-06T09:03:32.681Z,27.50
2023-03-06T09:04:32.653Z,27.70
2023-03-06T09:05:32.621Z,28.80
2023-03-06T09:06:32.596Z,29.10
2023-03-06T09:07:32.563Z,29.30
2023-03-06T09:08:32.531Z,29.50
2023-03-06T09:09:32.504Z,30.20
2023-03-06T09:10:32.560Z,30.80
2023-03-06T09:11:32.439Z,28.60
2023-03-06T09:12:40.407Z,25.40
2023-03-06T09:13:32.400Z,27.50
2023-03-06T09:14:32.353Z,28.40
2023-03-06T09:15:32.318Z,30.30
2023-03-06T09:16:32.389Z,29.60
2023-03-06T09:17:32.283Z,31.80
2023-03-06T09:18:32.231Z,28.40
2023-03-06T09:19:32.205Z,32.20
2023-03-06T09:20:32.175Z,31.40
2023-03-06T09:21:32.138Z,35.40
2023-03-06T09:22:32.170Z,31.40
2023-03-06T09:23:32.130Z,32.40
2023-03-06T09:24:32.053Z,29.40
2023-03-06T09:25:32.027Z,27.90
2023-03-06T09:26:44.990Z,24.60
2023-03-06T09:27:31.964Z,24.60
2023-03-06T09:28:31.941Z,25.40
2023-03-06T09:29:31.899Z,26.60
2023-03-06T09:30:31.957Z,30.30
2023-03-06T09:31:31.843Z,25.70
2023-03-06T09:32:31.873Z,26.30
2023-03-06T09:33:31.796Z,25.70
2023-03-06T09:34:31.774Z,27.50
2023-03-06T09:35:31.753Z,23.10
2023-03-06T09:36:33.289Z,28.40
2023-03-06T09:37:31.662Z,23.30
2023-03-06T09:38:31.647Z,26.80
2023-03-06T09:39:31.606Z,25.60
2023-03-06T09:40:31.575Z,23.30
2023-03-06T09:41:31.556Z,22.60
2023-03-06T09:42:31.511Z,24.80
2023-03-06T09:43:31.479Z,24.80
2023-03-06T09:44:31.493Z,28.40
2023-03-06T09:45:31.421Z,30.80
2023-03-06T09:46:31.479Z,27.30
2023-03-06T09:47:31.369Z,28.20
2023-03-06T09:48:31.364Z,24.60
2023-03-06T09:49:31.299Z,23.90
2023-03-06T09:50:31.267Z,26.60
2023-03-06T09:51:31.235Z,23.90
2023-03-06T09:52:31.213Z,22.40
2023-03-06T09:53:31.181Z,21.90
2023-03-06T09:54:31.148Z,23.90
2023-03-06T09:55:31.121Z,21.10
2023-03-06T09:56:31.139Z,20.10
2023-03-06T09:57:31.057Z,21.20
2023-03-06T09:58:31.026Z,19.30
2023-03-06T09:59:30.993Z,19.40
2023-03-06T10:00:30.967Z,18.30
2023-03-06T10:01:30.936Z,15.50
2023-03-06T10:02:31.027Z,15.90
2023-03-06T10:03:30.912Z,18.80
2023-03-06T10:04:30.986Z,20.30
2023-03-06T10:05:30.815Z,20.30
2023-03-06T10:06:30.793Z,17.80
2023-03-06T10:07:30.772Z,23.90
2023-03-06T10:08:30.730Z,17.30
2023-03-06T10:09:30.696Z,16.10
2023-03-06T10:10:30.668Z,15.10
2023-03-06T10:11:30.633Z,17.20
2023-03-06T10:12:30.603Z,17.50
2023-03-06T10:13:30.578Z,16.80
2023-03-06T10:14:30.556Z,13.40
2023-03-06T10:15:30.538Z,13.30
2023-03-06T10:16:30.506Z,13.20
2023-03-06T10:17:30.460Z,12.80
2023-03-06T10:18:30.442Z,13.50
2023-03-06T10:19:30.403Z,13.70
2023-03-06T10:20:30.393Z,10.70
2023-03-06T10:21:30.345Z,11.90
2023-03-06T10:22:30.323Z,11.10
2023-03-06T10:23:30.285Z,12.60
2023-03-06T10:24:30.265Z,13.10
2023-03-06T10:25:30.241Z,11.00
2023-03-06T10:26:30.391Z,11.90
2023-03-06T10:27:30.171Z,11.10
2023-03-06T10:28:30.147Z,11.40
2023-03-06T10:29:30.111Z,12.40
2023-03-06T10:30:30.078Z,12.30
2023-03-06T10:31:30.091Z,13.00
2023-03-06T10:32:39.504Z,12.10
2023-03-06T10:33:30.020Z,9.90
2023-03-06T10:34:29.982Z,11.30
2023-03-06T10:35:30.808Z,13.60
2023-03-06T10:36:29.950Z,12.50
2023-03-06T10:37:31.632Z,14.70
2023-03-06T10:38:29.853Z,12.70
2023-03-06T10:39:29.814Z,12.30
2023-03-06T10:40:29.792Z,13.20
2023-03-06T10:41:29.761Z,11.80
2023-03-06T10:42:29.747Z,11.80
2023-03-06T10:43:29.699Z,12.40
2023-03-06T10:44:29.665Z,13.20
2023-03-06T10:45:35.212Z,12.60
2023-03-06T10:46:29.669Z,13.20
2023-03-06T10:47:29.580Z,12.40
2023-03-06T10:48:29.552Z,10.10
2023-03-06T10:49:29.526Z,8.60
2023-03-06T10:50:29.494Z,9.20
2023-03-06T10:51:29.488Z,7.80
2023-03-06T10:52:29.480Z,7.00
2023-03-06T10:53:29.417Z,4.70
2023-03-06T10:54:29.377Z,2.70
2023-03-06T10:55:29.350Z,2.90
2023-03-06T10:56:29.321Z,4.30
2023-03-06T10:57:29.289Z,3.60
2023-03-06T10:58:29.263Z,4.10
2023-03-06T10:59:29.238Z,5.10
2023-03-06T11:00:29.204Z,3.80
2023-03-06T11:01:29.195Z,4.30
2023-03-06T11:02:29.144Z,3.60
2023-03-06T11:03:29.146Z,4.30
2023-03-06T11:04:29.115Z,3.20
2023-03-06T11:05:29.063Z,3.20
2023-03-06T11:06:29.033Z,3.00
2023-03-06T11:07:29.031Z,3.80
2023-03-06T11:08:28.998Z,3.90
2023-03-06T11:09:28.954Z,4.40
2023-03-06T11:10:28.928Z,3.40
2023-03-06T11:11:37.529Z,4.00
2023-03-06T11:12:28.865Z,3.70
2023-03-06T11:13:28.838Z,4.30
2023-03-06T11:14:28.815Z,3.70
2023-03-06T11:15:28.784Z,5.30
2023-03-06T11:16:28.799Z,5.60
2023-03-06T11:17:28.731Z,4.80
2023-03-06T11:18:28.703Z,4.60
2023-03-06T11:19:28.672Z,4.10
2023-03-06T11:20:33.579Z,4.50
2023-03-06T11:21:30.378Z,3.40
2023-03-06T11:22:28.585Z,3.60
2023-03-06T11:23:28.560Z,3.20
2023-03-06T11:24:28.554Z,4.20
2023-03-06T11:25:28.507Z,3.70
2023-03-06T11:26:28.473Z,2.90
2023-03-06T11:27:28.453Z,4.10
2023-03-06T11:28:28.416Z,3.20
2023-03-06T11:29:29.333Z,3.60
2023-03-06T11:30:28.358Z,3.80
2023-03-06T11:31:28.396Z,3.90
2023-03-06T11:32:28.346Z,3.90
2023-03-06T11:33:28.276Z,3.40
2023-03-06T11:34:28.255Z,3.40
2023-03-06T11:35:28.255Z,5.60
2023-03-06T11:36:28.198Z,4.00
2023-03-06T11:37:28.221Z,3.90
2023-03-06T11:38:28.173Z,3.20
2023-03-06T11:39:28.157Z,3.20
2023-03-06T11:40:28.099Z,3.20
2023-03-06T11:41:28.061Z,2.80
2023-03-06T11:42:28.043Z,3.10
2023-03-06T11:43:27.989Z,3.00
2023-03-06T11:44:27.958Z,3.20
2023-03-06T11:45:27.940Z,9.90
2023-03-06T11:46:27.965Z,4.50
2023-03-06T11:47:27.873Z,5.20
2023-03-06T11:48:27.847Z,4.80
2023-03-06T11:49:27.815Z,4.60
2023-03-06T11:50:27.788Z,5.20
2023-03-06T11:51:27.760Z,4.60
2023-03-06T11:52:27.728Z,4.60
2023-03-06T11:53:27.703Z,3.80
2023-03-06T11:54:27.674Z,5.40
2023-03-06T11:55:27.646Z,3.80
2023-03-06T11:56:28.810Z,3.60
2023-03-06T11:57:27.591Z,3.10
2023-03-06T11:58:27.562Z,3.60
2023-03-06T11:59:27.554Z,2.80
2023-03-06T12:00:27.500Z,3.30
2023-03-06T12:01:27.475Z,3.10
2023-03-06T12:02:27.548Z,4.50
2023-03-06T12:03:27.437Z,3.80
2023-03-06T12:04:27.388Z,3.80
2023-03-06T12:05:27.386Z,3.80
2023-03-06T12:06:27.332Z,3.40
2023-03-06T12:07:27.307Z,3.00
2023-03-06T12:08:27.277Z,3.30
2023-03-06T12:09:27.252Z,4.40
2023-03-06T12:10:27.218Z,4.70
2023-03-06T12:11:27.191Z,3.20
2023-03-06T12:12:27.179Z,3.20
2023-03-06T12:13:27.161Z,2.90
2023-03-06T12:14:27.112Z,2.70
2023-03-06T12:15:27.089Z,2.90
2023-03-06T12:16:27.081Z,2.90
2023-03-06T12:17:27.020Z,3.60
2023-03-06T12:18:27.000Z,4.70
2023-03-06T12:19:26.955Z,2.90
2023-03-06T12:20:26.928Z,2.50
2023-03-06T12:21:26.901Z,3.20
2023-03-06T12:22:26.878Z,2.50
2023-03-06T12:23:26.842Z,4.00
2023-03-06T12:24:26.817Z,3.70
2023-03-06T12:25:26.791Z,2.50
2023-03-06T12:26:26.765Z,3.30
2023-03-06T12:27:26.732Z,2.60
2023-03-06T12:28:26.723Z,3.40
2023-03-06T12:29:26.673Z,1.90
2023-03-06T12:30:26.643Z,1.80
2023-03-06T12:31:26.676Z,1.80
2023-03-06T12:32:26.630Z,1.80
2023-03-06T12:33:26.559Z,2.00
2023-03-06T12:34:26.529Z,1.70
2023-03-06T12:35:26.517Z,2.10
2023-03-06T12:36:26.473Z,2.60
2023-03-06T12:37:26.446Z,3.50
2023-03-06T12:38:26.413Z,2.20
2023-03-06T12:39:26.387Z,1.60
2023-03-06T12:40:26.358Z,2.30
2023-03-06T12:41:26.335Z,2.00
2023-03-06T12:42:26.303Z,2.30
2023-03-06T12:43:26.276Z,2.40
2023-03-06T12:44:26.279Z,2.00
2023-03-06T12:45:26.214Z,1.80
2023-03-06T12:46:26.229Z,1.80
2023-03-06T12:47:26.156Z,1.60
2023-03-06T12:48:26.129Z,1.70
2023-03-06T12:49:31.796Z,1.80
2023-03-06T12:50:26.076Z,3.20
2023-03-06T12:51:26.054Z,2.20
2023-03-06T12:52:30.178Z,2.10
2023-03-06T12:53:25.989Z,2.30
2023-03-06T12:54:25.958Z,2.00
2023-03-06T12:55:26.125Z,2.90
2023-03-06T12:56:25.899Z,2.20
2023-03-06T12:57:25.876Z,3.50
2023-03-06T12:58:25.845Z,2.20
2023-03-06T12:59:25.818Z,1.90
2023-03-06T13:00:25.821Z,2.00